createdAt,value
2022-12-05T00:00:08.708Z,26.42
2022-12-05T00:02:35.043Z,26.50
2022-12-05T00:05:01.401Z,24.35
2022-12-05T00:07:28.850Z,23.27
2022-12-05T00:09:55.308Z,28.38
2022-12-05T00:12:21.855Z,22.23
2022-12-05T00:14:48.126Z,28.33
2022-12-05T00:17:14.471Z,32.88
2022-12-05T00:19:40.784Z,31.02
2022-12-05T00:22:07.141Z,28.35
2022-12-05T00:24:33.427Z,23.23
2022-12-05T00:26:59.702Z,27.08
2022-12-05T00:29:25.986Z,25.38
2022-12-05T00:31:52.286Z,27.65
2022-12-05T00:34:18.617Z,30.15
2022-12-05T00:36:44.883Z,28.65
2022-12-05T00:39:12.529Z,28.15
2022-12-05T00:41:38.815Z,27.48
2022-12-05T00:44:05.272Z,26.48
2022-12-05T00:46:33.039Z,25.95
2022-12-05T00:49:00.151Z,25.98
2022-12-05T00:51:28.359Z,28.27
2022-12-05T00:53:55.877Z,24.83
2022-12-05T00:56:23.528Z,29.75
2022-12-05T00:58:51.953Z,29.10
2022-12-05T01:01:20.463Z,23.48
2022-12-05T01:03:47.285Z,27.20
2022-12-05T01:06:14.688Z,26.33
2022-12-05T01:08:41.303Z,23.77
2022-12-05T01:11:08.168Z,24.70
2022-12-05T01:13:34.536Z,28.10
2022-12-05T01:16:00.875Z,29.00
2022-12-05T01:18:27.781Z,31.40
2022-12-05T01:20:54.248Z,29.65
2022-12-05T01:23:20.977Z,30.60
2022-12-05T01:25:48.272Z,26.50
2022-12-05T01:28:14.849Z,24.70
2022-12-05T01:30:42.729Z,28.80
2022-12-05T01:33:09.261Z,32.40
2022-12-05T01:35:36.363Z,26.38
2022-12-05T01:38:02.758Z,28.20
2022-12-05T01:40:29.299Z,29.48
2022-12-05T01:42:55.962Z,35.47
2022-12-05T01:45:41.734Z,26.17
2022-12-05T01:48:12.261Z,31.95
2022-12-05T01:53:05.084Z,31.77
2022-12-05T01:55:31.716Z,31.98
2022-12-05T01:57:58.742Z,29.88
2022-12-05T02:00:25.134Z,26.85
2022-12-05T02:02:53.560Z,30.98
2022-12-05T02:05:19.903Z,26.38
2022-12-05T02:07:47.198Z,32.70
2022-12-05T02:10:13.645Z,30.40
2022-12-05T02:12:40.438Z,26.25
2022-12-05T02:15:12.788Z,29.67
2022-12-05T02:17:48.222Z,25.70
2022-12-05T02:20:26.644Z,28.15
2022-12-05T02:23:02.625Z,30.10
2022-12-05T02:25:28.904Z,26.85
2022-12-05T02:28:10.877Z,29.00
2022-12-05T02:30:41.956Z,28.67
2022-12-05T02:33:26.318Z,32.42
2022-12-05T02:35:58.129Z,29.85
2022-12-05T02:38:24.393Z,25.48
2022-12-05T02:40:50.641Z,29.58
2022-12-05T02:43:22.789Z,29.00
2022-12-05T02:45:52.594Z,26.42
2022-12-05T02:48:20.122Z,28.85
2022-12-05T02:50:47.782Z,26.13
2022-12-05T02:53:15.659Z,26.67
2022-12-05T02:55:42.620Z,33.70
2022-12-05T02:58:11.766Z,30.90
2022-12-05T03:00:39.252Z,34.13
2022-12-05T03:03:16.544Z,31.33
2022-12-05T03:05:47.223Z,37.08
2022-12-05T03:08:16.643Z,24.27
2022-12-05T03:10:45.117Z,28.45
2022-12-05T03:13:23.594Z,32.28
2022-12-05T03:15:52.775Z,26.13
2022-12-05T03:18:23.230Z,28.05
2022-12-05T03:23:19.172Z,28.58
2022-12-05T03:25:51.297Z,27.77
2022-12-05T03:28:24.498Z,31.40
2022-12-05T03:30:52.979Z,37.10
2022-12-05T03:33:25.138Z,32.47
2022-12-05T03:35:51.576Z,28.92
2022-12-05T03:38:21.918Z,28.60
2022-12-05T03:40:53.042Z,35.22
2022-12-05T03:43:25.036Z,27.30
2022-12-05T03:45:51.356Z,25.52
2022-12-05T03:48:23.701Z,26.95
2022-12-05T03:50:51.574Z,29.15
2022-12-05T03:53:28.535Z,27.08
2022-12-05T03:56:03.916Z,24.15
2022-12-05T03:58:35.487Z,25.95
2022-12-05T04:01:04.778Z,26.83
2022-12-05T04:03:41.516Z,29.05
2022-12-05T04:06:12.057Z,23.80
2022-12-05T04:11:07.468Z,22.85
2022-12-05T04:13:40.568Z,23.23
2022-12-05T04:16:34.625Z,26.33
2022-12-05T04:19:05.137Z,23.48
2022-12-05T04:24:34.437Z,28.55
2022-12-05T04:27:09.809Z,24.02
2022-12-05T04:29:39.172Z,21.30
2022-12-05T04:32:08.230Z,21.27
2022-12-05T04:34:37.240Z,20.33
2022-12-05T04:37:06.772Z,24.95
2022-12-05T04:39:37.241Z,22.13
2022-12-05T04:44:32.889Z,19.90
2022-12-05T04:47:00.960Z,24.35
2022-12-05T04:49:28.192Z,22.55
2022-12-05T04:51:56.270Z,22.00
2022-12-05T04:54:27.337Z,20.42
2022-12-05T04:57:00.874Z,22.20
2022-12-05T04:59:27.624Z,21.40
2022-12-05T05:01:56.659Z,19.85
2022-12-05T05:04:25.789Z,19.33
2022-12-05T05:06:52.077Z,22.00
2022-12-05T05:09:18.357Z,19.92
2022-12-05T05:11:44.668Z,24.52
2022-12-05T05:14:11.234Z,17.60
2022-12-05T05:16:38.776Z,16.20
2022-12-05T05:19:05.759Z,24.15
2022-12-05T05:21:34.099Z,17.13
2022-12-05T05:24:00.844Z,18.40
2022-12-05T05:26:28.489Z,19.15
2022-12-05T05:28:54.905Z,21.67
2022-12-05T05:31:21.655Z,19.75
2022-12-05T05:33:51.681Z,19.70
2022-12-05T05:36:18.493Z,15.57
2022-12-05T05:38:46.244Z,22.90
2022-12-05T05:41:13.652Z,21.95
2022-12-05T05:43:40.687Z,18.88
2022-12-05T05:46:07.161Z,17.23
2022-12-05T05:48:33.432Z,16.83
2022-12-05T05:51:00.179Z,23.60
2022-12-05T05:53:26.458Z,19.38
2022-12-05T05:55:52.744Z,17.73
2022-12-05T05:58:19.019Z,16.15
2022-12-05T06:00:45.299Z,19.73
2022-12-05T06:03:11.709Z,20.83
2022-12-05T06:05:38.190Z,17.05
2022-12-05T06:08:04.701Z,19.08
2022-12-05T06:10:31.020Z,46.75
2022-12-05T06:12:57.811Z,36.65
2022-12-05T06:15:24.348Z,23.08
2022-12-05T06:17:50.791Z,20.38
2022-12-05T06:20:17.217Z,25.38
2022-12-05T06:22:43.551Z,20.30
2022-12-05T06:25:10.917Z,18.70
2022-12-05T06:27:37.224Z,22.88
2022-12-05T06:30:03.778Z,20.90
2022-12-05T06:32:30.284Z,19.77
2022-12-05T06:34:56.559Z,21.02
2022-12-05T06:37:22.960Z,22.00
2022-12-05T06:39:50.780Z,23.33
2022-12-05T06:42:17.070Z,21.63
2022-12-05T06:44:43.349Z,25.98
2022-12-05T06:47:09.696Z,19.45
2022-12-05T06:49:38.054Z,20.48
2022-12-05T06:52:04.697Z,21.20
2022-12-05T06:54:31.149Z,19.88
2022-12-05T06:56:57.496Z,19.77
2022-12-05T06:59:23.812Z,18.55
2022-12-05T07:01:50.473Z,17.85
2022-12-05T07:04:20.123Z,22.17
2022-12-05T07:06:50.490Z,19.50
2022-12-05T07:09:18.285Z,22.55
2022-12-05T07:11:50.684Z,24.67
2022-12-05T07:14:39.012Z,20.98
2022-12-05T07:17:04.161Z,19.63
2022-12-05T07:19:30.534Z,18.10
2022-12-05T07:21:56.870Z,18.63
2022-12-05T07:24:23.232Z,16.83
2022-12-05T07:26:49.616Z,16.13
2022-12-05T07:29:15.899Z,15.98
2022-12-05T07:31:42.360Z,17.67
2022-12-05T07:34:08.672Z,18.60
2022-12-05T07:36:34.966Z,17.83
2022-12-05T07:39:01.243Z,15.98
2022-12-05T07:41:28.897Z,17.60
2022-12-05T07:43:56.180Z,13.43
2022-12-05T07:46:22.774Z,16.25
2022-12-05T07:48:49.443Z,14.50
2022-12-05T07:51:16.176Z,16.75
2022-12-05T07:53:44.244Z,15.00
2022-12-05T07:56:11.953Z,15.05
2022-12-05T07:58:38.753Z,15.10
2022-12-05T08:01:13.928Z,13.25
2022-12-05T08:03:40.699Z,13.50
2022-12-05T08:06:09.908Z,11.20
2022-12-05T08:08:36.264Z,10.88
2022-12-05T08:11:04.086Z,15.63
2022-12-05T08:13:30.415Z,15.15
2022-12-05T08:16:00.358Z,15.07
2022-12-05T08:18:27.628Z,19.88
2022-12-05T08:20:54.039Z,17.23
2022-12-05T08:23:20.306Z,32.50
2022-12-05T08:25:46.611Z,25.65
2022-12-05T08:28:12.921Z,34.47
2022-12-05T08:30:39.266Z,30.95
2022-12-05T08:33:05.703Z,29.65
2022-12-05T08:35:31.986Z,31.05
2022-12-05T08:37:58.253Z,30.08
2022-12-05T08:40:24.529Z,23.00
2022-12-05T08:42:50.803Z,25.20
2022-12-05T08:45:17.214Z,25.70
2022-12-05T08:47:43.495Z,20.60
2022-12-05T08:50:09.820Z,23.45
2022-12-05T08:52:36.237Z,16.95
2022-12-05T08:55:02.699Z,16.00
2022-12-05T08:57:29.000Z,14.55
2022-12-05T08:59:55.595Z,13.20
2022-12-05T09:02:21.985Z,13.68
2022-12-05T09:04:53.997Z,13.07
2022-12-05T09:07:20.600Z,13.48
2022-12-05T09:09:46.896Z,15.63
2022-12-05T09:12:14.831Z,13.77
2022-12-05T09:14:41.121Z,14.02
2022-12-05T09:17:07.735Z,12.27
2022-12-05T09:19:33.999Z,14.27
2022-12-05T09:22:00.276Z,15.52
2022-12-05T09:24:26.537Z,15.73
2022-12-05T09:26:53.025Z,19.90
2022-12-05T09:29:19.355Z,22.13
2022-12-05T09:31:47.408Z,16.85
2022-12-05T09:34:15.092Z,18.38
2022-12-05T09:36:41.765Z,19.98
2022-12-05T09:39:08.299Z,19.83
2022-12-05T09:42:09.918Z,16.65
2022-12-05T09:44:54.847Z,20.40
2022-12-05T09:47:24.453Z,15.65
2022-12-05T09:49:53.456Z,15.80
2022-12-05T09:52:25.145Z,15.02
2022-12-05T09:54:53.417Z,14.38
2022-12-05T09:57:39.954Z,12.40
2022-12-05T10:00:07.001Z,12.52
2022-12-05T10:02:47.632Z,15.23
2022-12-05T10:05:19.278Z,13.50
2022-12-05T10:07:48.367Z,15.65
2022-12-05T10:10:23.785Z,13.10
2022-12-05T10:13:01.279Z,15.32
2022-12-05T10:15:50.126Z,12.57
2022-12-05T10:18:30.452Z,11.68
2022-12-05T10:21:00.257Z,14.27
2022-12-05T10:23:56.988Z,16.17
2022-12-05T10:26:26.376Z,13.98
2022-12-05T10:28:57.112Z,15.93
2022-12-05T10:31:27.046Z,18.63
2022-12-05T10:34:17.397Z,14.07
2022-12-05T10:37:06.652Z,14.75
2022-12-05T10:39:33.008Z,16.20
2022-12-05T10:41:59.387Z,14.48
2022-12-05T10:44:25.782Z,16.77
2022-12-05T10:46:52.193Z,17.27
2022-12-05T10:49:19.564Z,14.57
2022-12-05T10:51:46.022Z,12.40
2022-12-05T10:54:14.890Z,14.15
2022-12-05T10:56:48.261Z,14.85
2022-12-05T10:59:16.449Z,11.25
2022-12-05T11:01:46.427Z,13.45
2022-12-05T11:04:24.685Z,12.38
2022-12-05T11:06:57.076Z,12.30
2022-12-05T11:09:28.029Z,13.70
2022-12-05T11:12:00.337Z,11.00
2022-12-05T11:14:26.903Z,14.10
2022-12-05T11:16:55.129Z,11.90
2022-12-05T11:19:21.390Z,12.00
2022-12-05T11:21:48.290Z,13.30
2022-12-05T11:24:22.289Z,15.38
2022-12-05T11:26:48.718Z,14.10
2022-12-05T11:29:33.591Z,13.85
2022-12-05T11:32:00.062Z,12.38
2022-12-05T11:34:42.652Z,13.23
2022-12-05T11:37:11.761Z,13.77
2022-12-05T11:39:38.033Z,11.68
2022-12-05T11:42:04.298Z,10.70
2022-12-05T11:44:49.523Z,13.50
2022-12-05T11:47:18.804Z,12.35
2022-12-05T11:49:55.424Z,11.57
2022-12-05T11:52:40.961Z,10.88
2022-12-05T11:55:14.743Z,16.15
2022-12-05T11:57:59.990Z,12.73
2022-12-05T12:00:42.393Z,10.88
2022-12-05T12:03:11.712Z,12.50
2022-12-05T12:06:10.481Z,10.93
2022-12-05T12:08:55.196Z,11.00
2022-12-05T12:11:53.906Z,13.35
2022-12-05T12:14:25.989Z,12.70
2022-12-05T12:16:55.466Z,13.88
2022-12-05T12:19:40.406Z,16.77
2022-12-05T12:22:12.731Z,13.57
2022-12-05T12:24:58.066Z,16.23
2022-12-05T12:27:36.880Z,15.15
2022-12-05T12:30:06.497Z,14.10
2022-12-05T12:32:51.446Z,18.05
2022-12-05T12:35:17.904Z,19.15
2022-12-05T12:37:58.174Z,15.90
2022-12-05T12:40:43.085Z,19.98
2022-12-05T12:43:53.076Z,14.30
2022-12-05T12:46:22.561Z,17.30
2022-12-05T12:48:48.836Z,17.38
2022-12-05T12:51:15.202Z,15.68
2022-12-05T12:53:50.738Z,15.75
2022-12-05T12:56:38.385Z,13.70
2022-12-05T12:59:04.697Z,14.65
2022-12-05T13:01:31.085Z,14.65
2022-12-05T13:04:02.762Z,14.68
2022-12-05T13:06:32.501Z,14.70
2022-12-05T13:09:04.484Z,13.00
2022-12-05T13:11:33.777Z,15.07
2022-12-05T13:14:01.570Z,15.45
2022-12-05T13:16:30.677Z,13.30
2022-12-05T13:18:57.609Z,15.18
2022-12-05T13:21:24.764Z,22.45
2022-12-05T13:23:52.258Z,15.50
2022-12-05T13:26:18.949Z,15.98
2022-12-05T13:28:50.473Z,21.98
2022-12-05T13:31:19.420Z,18.65
2022-12-05T13:33:47.383Z,19.65
2022-12-05T13:36:32.203Z,18.27
2022-12-05T13:39:24.106Z,19.58
2022-12-05T13:42:16.046Z,21.05
2022-12-05T13:44:45.433Z,20.48
2022-12-05T13:47:26.447Z,18.48
2022-12-05T13:49:55.624Z,23.30
2022-12-05T13:52:24.546Z,18.33
2022-12-05T13:54:58.619Z,21.95
2022-12-05T13:57:40.166Z,17.85
2022-12-05T14:00:09.227Z,26.80
2022-12-05T14:02:41.875Z,23.85
2022-12-05T14:05:14.405Z,22.45
2022-12-05T14:07:45.300Z,21.77
2022-12-05T14:10:16.545Z,21.85
2022-12-05T14:12:50.691Z,24.10
2022-12-05T14:15:24.486Z,23.75
2022-12-05T14:17:55.787Z,26.40
2022-12-05T14:20:40.891Z,22.38
2022-12-05T14:23:25.874Z,21.27
2022-12-05T14:26:10.980Z,23.30
2022-12-05T14:28:37.282Z,22.70
2022-12-05T14:31:12.739Z,21.83
2022-12-05T14:33:39.118Z,20.85
2022-12-05T14:36:14.310Z,23.08
2022-12-05T14:38:40.650Z,26.73
2022-12-05T14:41:22.658Z,26.13
2022-12-05T14:43:56.158Z,22.90
2022-12-05T14:46:25.393Z,24.17
2022-12-05T14:48:52.159Z,23.23
2022-12-05T14:51:30.649Z,22.60
2022-12-05T14:54:02.655Z,20.95
2022-12-05T14:56:28.933Z,22.92
2022-12-05T14:59:01.050Z,24.25
2022-12-05T15:01:29.113Z,26.25
2022-12-05T15:04:04.812Z,23.02
2022-12-05T15:06:33.142Z,23.33
2022-12-05T15:09:28.677Z,21.42
2022-12-05T15:11:47.405Z,24.40
2022-12-05T15:14:21.382Z,25.83
2022-12-05T15:16:50.209Z,22.40
2022-12-05T15:19:23.823Z,26.05
2022-12-05T15:21:56.618Z,23.15
2022-12-05T15:24:23.183Z,23.02
2022-12-05T15:26:56.488Z,24.52
2022-12-05T15:29:25.791Z,27.50
2022-12-05T15:31:52.186Z,27.60
2022-12-05T15:34:33.703Z,27.10
2022-12-05T15:37:15.483Z,23.25
2022-12-05T15:39:51.407Z,26.60
2022-12-05T15:42:17.733Z,28.65
2022-12-05T15:44:44.035Z,22.67
2022-12-05T15:47:19.652Z,23.50
2022-12-05T15:49:46.522Z,24.17
2022-12-05T15:52:24.746Z,27.38
2022-12-05T15:54:52.406Z,26.50
2022-12-05T15:57:25.293Z,27.90
2022-12-05T15:59:56.408Z,24.45
2022-12-05T16:02:25.998Z,26.67
2022-12-05T16:04:59.665Z,24.05
2022-12-05T16:07:28.488Z,26.33
2022-12-05T16:09:59.193Z,25.95
2022-12-05T16:12:27.671Z,28.17
2022-12-05T16:15:00.390Z,23.98
2022-12-05T16:17:28.818Z,27.17
2022-12-05T16:20:09.466Z,26.27
2022-12-05T16:22:35.753Z,24.42
2022-12-05T16:25:12.517Z,30.15
2022-12-05T16:27:39.586Z,26.95
2022-12-05T16:30:11.752Z,25.92
2022-12-05T16:32:39.112Z,28.58
2022-12-05T16:35:25.350Z,28.38
2022-12-05T16:38:02.104Z,23.83
2022-12-05T16:40:28.396Z,29.02
2022-12-05T16:43:05.360Z,29.27
2022-12-05T16:45:39.408Z,28.25
2022-12-05T16:48:14.020Z,30.83
2022-12-05T16:50:40.328Z,23.23
2022-12-05T16:53:09.428Z,28.35
2022-12-05T16:55:39.242Z,28.35
2022-12-05T16:58:05.893Z,32.47
2022-12-05T17:00:33.117Z,26.00
2022-12-05T17:03:25.625Z,31.92
2022-12-05T17:05:45.657Z,29.83
2022-12-05T17:08:12.350Z,31.77
2022-12-05T17:10:39.572Z,30.73
2022-12-05T17:13:05.945Z,29.80
2022-12-05T17:15:32.694Z,27.27
2022-12-05T17:17:59.411Z,27.63
2022-12-05T17:20:25.718Z,31.55
2022-12-05T17:22:52.070Z,32.55
2022-12-05T17:25:22.950Z,36.80
2022-12-05T17:27:49.392Z,35.53
2022-12-05T17:30:15.742Z,32.20
2022-12-05T17:32:45.578Z,34.67
2022-12-05T17:35:16.009Z,30.05
2022-12-05T17:40:08.884Z,32.25
2022-12-05T17:42:35.160Z,30.08
2022-12-05T17:45:01.936Z,38.72
2022-12-05T17:47:28.334Z,36.70
2022-12-05T17:49:54.797Z,42.45
2022-12-05T17:52:22.436Z,42.92
2022-12-05T17:54:49.118Z,40.47
2022-12-05T17:57:15.389Z,37.42
2022-12-05T17:59:41.674Z,34.10
2022-12-05T18:02:09.792Z,38.38
2022-12-05T18:04:36.784Z,31.42
2022-12-05T18:07:03.061Z,32.67
2022-12-05T18:09:29.429Z,30.80
2022-12-05T18:11:56.774Z,31.70
2022-12-05T18:14:23.182Z,33.33
2022-12-05T18:16:49.653Z,34.45
2022-12-05T18:19:15.967Z,31.77
2022-12-05T18:21:42.245Z,30.83
2022-12-05T18:24:08.650Z,30.23
2022-12-05T18:26:34.911Z,32.70
2022-12-05T18:29:01.204Z,29.88
2022-12-05T18:31:27.629Z,25.52
2022-12-05T18:33:53.942Z,27.02
2022-12-05T18:36:20.753Z,28.88
2022-12-05T18:38:51.075Z,27.23
2022-12-05T18:41:17.411Z,29.75
2022-12-05T18:43:43.835Z,34.53
2022-12-05T18:46:10.258Z,31.60
2022-12-05T18:48:42.665Z,25.00
2022-12-05T18:51:12.536Z,31.33
2022-12-05T18:53:38.837Z,29.25
2022-12-05T18:56:25.580Z,31.02
2022-12-05T18:59:01.152Z,32.03
2022-12-05T19:01:28.437Z,34.20
2022-12-05T19:03:56.380Z,31.77
2022-12-05T19:06:24.096Z,28.42
2022-12-05T19:08:52.897Z,31.77
2022-12-05T19:11:20.014Z,33.67
2022-12-05T19:13:47.506Z,29.20
2022-12-05T19:16:16.647Z,31.30
2022-12-05T19:18:43.088Z,27.05
2022-12-05T19:21:09.536Z,25.38
2022-12-05T19:23:35.991Z,34.28
2022-12-05T19:26:03.949Z,25.60
2022-12-05T19:28:31.541Z,36.28
2022-12-05T19:31:05.301Z,29.08
2022-12-05T19:33:35.503Z,33.45
2022-12-05T19:36:05.978Z,24.90
2022-12-05T19:40:59.134Z,29.92
2022-12-05T19:43:25.472Z,30.88
2022-12-05T19:45:52.325Z,25.35
2022-12-05T19:48:18.890Z,28.15
2022-12-05T19:50:45.171Z,31.83
2022-12-05T19:53:12.327Z,29.92
2022-12-05T19:55:38.730Z,32.08
2022-12-05T19:58:05.001Z,28.70
2022-12-05T20:00:32.171Z,23.83
2022-12-05T20:02:58.553Z,31.70
2022-12-05T20:05:24.868Z,26.33
2022-12-05T20:07:51.886Z,24.15
2022-12-05T20:10:18.218Z,24.00
2022-12-05T20:12:44.564Z,24.75
2022-12-05T20:15:11.104Z,26.60
2022-12-05T20:17:37.360Z,25.98
2022-12-05T20:20:04.362Z,28.10
2022-12-05T20:22:30.925Z,27.23
2022-12-05T20:24:57.364Z,27.38
2022-12-05T20:27:23.930Z,24.60
2022-12-05T20:29:50.345Z,23.08
2022-12-05T20:32:16.661Z,27.10
2022-12-05T20:34:43.107Z,32.40
2022-12-05T20:37:09.450Z,25.42
2022-12-05T20:39:35.735Z,31.98
2022-12-05T20:42:02.166Z,32.35
2022-12-05T20:44:28.613Z,30.80
2022-12-05T20:46:54.906Z,32.17
2022-12-05T20:49:22.034Z,27.83
2022-12-05T20:51:48.369Z,28.38
2022-12-05T20:54:16.580Z,26.73
2022-12-05T20:56:42.861Z,25.63
2022-12-05T20:59:10.178Z,27.98
2022-12-05T21:01:37.504Z,30.48
2022-12-05T21:04:05.935Z,30.13
2022-12-05T21:06:33.842Z,26.25
2022-12-05T21:09:00.776Z,30.52
2022-12-05T21:11:27.903Z,28.42
2022-12-05T21:13:58.566Z,30.58
2022-12-05T21:16:24.914Z,29.42
2022-12-05T21:18:51.885Z,24.13
2022-12-05T21:21:19.623Z,29.65
2022-12-05T21:23:46.690Z,26.95
2022-12-05T21:26:13.995Z,29.58
2022-12-05T21:28:41.150Z,26.58
2022-12-05T21:31:12.427Z,31.50
2022-12-05T21:33:39.336Z,29.80
2022-12-05T21:36:06.138Z,29.33
2022-12-05T21:38:32.504Z,31.60
2022-12-05T21:40:58.877Z,27.27
2022-12-05T21:43:25.415Z,31.30
2022-12-05T21:45:53.188Z,35.25
2022-12-05T21:48:20.097Z,29.17
2022-12-05T21:50:46.411Z,28.10
2022-12-05T21:53:12.721Z,27.08
2022-12-05T21:55:39.363Z,30.65
2022-12-05T21:58:05.730Z,37.63
2022-12-05T22:00:32.119Z,39.08
2022-12-05T22:02:58.529Z,34.90
2022-12-05T22:05:24.925Z,35.60
2022-12-05T22:07:51.269Z,39.05
2022-12-05T22:10:17.897Z,31.77
2022-12-05T22:12:44.392Z,34.00
2022-12-05T22:15:11.179Z,26.95
2022-12-05T22:17:37.500Z,32.53
2022-12-05T22:20:04.597Z,33.95
2022-12-05T22:22:31.017Z,36.50
2022-12-05T22:24:57.502Z,33.47
2022-12-05T22:27:24.044Z,34.20
2022-12-05T22:29:52.835Z,36.10
2022-12-05T22:32:19.400Z,31.23
2022-12-05T22:34:45.685Z,29.95
2022-12-05T22:37:12.005Z,30.13
2022-12-05T22:39:38.411Z,33.60
2022-12-05T22:42:04.765Z,26.80
2022-12-05T22:44:31.084Z,32.33
2022-12-05T22:46:57.511Z,31.88
2022-12-05T22:49:25.337Z,35.40
2022-12-05T22:51:52.280Z,30.98
2022-12-05T22:54:18.592Z,32.97
2022-12-05T22:56:44.892Z,30.70
2022-12-05T22:59:14.518Z,31.83
2022-12-05T23:01:41.264Z,34.33
2022-12-05T23:04:10.275Z,33.83
2022-12-05T23:06:37.463Z,34.83
2022-12-05T23:09:05.406Z,34.90
2022-12-05T23:11:31.813Z,35.63
2022-12-05T23:14:02.145Z,30.00
2022-12-05T23:16:32.104Z,33.17
2022-12-05T23:18:59.681Z,24.95
2022-12-05T23:21:27.575Z,27.02
2022-12-05T23:23:55.228Z,29.10
2022-12-05T23:26:22.759Z,24.77
2022-12-05T23:28:49.257Z,30.35
2022-12-05T23:31:16.189Z,27.52
2022-12-05T23:33:42.912Z,35.20
2022-12-05T23:36:09.915Z,29.83
2022-12-05T23:38:36.684Z,27.02
2022-12-05T23:41:02.968Z,25.45
2022-12-05T23:43:30.630Z,21.83
2022-12-05T23:45:57.033Z,23.30
2022-12-05T23:48:23.821Z,22.83
2022-12-05T23:50:56.832Z,19.55
2022-12-05T23:53:23.280Z,22.08
2022-12-05T23:55:49.613Z,25.33
2022-12-05T23:58:15.898Z,20.67
